Latest Weather Observations for Roma

IDQ60801

Issued at 5:05 pm EST Tuesday 21 October 2014 (issued every 30 minutes, with the page automatically refreshed every 10 minutes)

About weather observations | Map of weather stations | Latest weather observations for QLD | Other Formats
Station Details ID: 043091 Name: ROMA AIRPORT Lat: -26.55 Lon: 148.77 Height: 307.38 m
Data from the previous 72 hours. | See also: Recent months at Roma
Date/Time
EST
Temp
°C
App
Temp
°C
Dew
Point
Rel
Hum
%
Delta-T
°C
Wind Press
QNH
hPa
Press
MSL
hPa
Rain
since 9 am
mm
Dir
 
Spd
km/h
Gust
km/h
Spd
kts
Gust
kts
21/05:00pm 30.4 26.3 6.3 22 13.0 E 17 24 9 13 1021.0 1019.8 0.0
21/04:30pm 31.2 26.7 6.3 21 13.5 ESE 19 24 10 13 1020.9 1019.7 0.0
21/04:00pm 31.1 26.8 6.9 22 13.2 E 19 28 10 15 1020.9 1019.7 0.0
21/03:30pm 31.3 26.7 6.4 21 13.5 E 20 30 11 16 1021.1 1019.9 0.0
21/03:00pm 31.0 28.8 6.1 21 13.4 NNE 7 15 4 8 1021.4 1020.2 0.0
21/02:30pm 30.4 27.5 6.3 22 13.0 ESE 11 22 6 12 1021.7 1020.5 0.0
21/02:00pm 30.4 26.5 7.0 23 12.7 ESE 17 19 9 10 1022.1 1020.9 0.0
21/01:30pm 31.1 26.7 7.5 23 13.0 E 20 28 11 15 1022.7 1021.5 0.0
21/01:00pm 29.5 24.9 5.6 22 12.7 ENE 19 28 10 15 1023.3 1022.1 0.0
21/12:30pm 29.3 24.7 6.7 24 12.2 E 20 32 11 17 1023.8 1022.7 0.0
21/12:00pm 29.3 25.7 6.7 24 12.2 NNE 15 41 8 22 1024.5 1023.3 0.0
21/11:30am 28.0 21.9 6.7 26 11.4 ENE 28 35 15 19 1025.0 1023.8 0.0
21/11:00am 26.9 22.3 6.3 27 10.9 NE 20 33 11 18 1025.6 1024.4 0.0
21/10:30am 25.7 20.0 6.8 30 10.0 NE 26 37 14 20 1026.0 1024.8 0.0
21/10:00am 25.1 19.9 7.3 32 9.5 ENE 24 30 13 16 1026.3 1025.1 0.0
21/09:30am 24.4 17.7 7.5 34 9.0 ENE 32 35 17 19 1026.6 1025.5 0.0
21/09:00am 23.6 18.3 8.5 38 8.1 NNE 26 35 14 19 1026.7 1025.6 0.0
21/08:30am 22.7 17.5 8.8 41 7.5 NE 26 35 14 19 1026.9 1025.8 0.0
21/08:00am 21.6 17.0 9.5 46 6.6 NNE 24 33 13 18 1026.9 1025.8 0.0
21/07:30am 20.2 14.9 10.0 52 5.6 NNE 28 37 15 20 1026.8 1025.7 0.0
21/07:00am 19.1 13.9 10.1 56 4.9 NNE 28 39 15 21 1026.5 1025.3 0.0
21/06:30am 18.5 14.8 10.3 59 4.5 NE 20 30 11 16 1026.2 1025.0 0.0
21/06:00am 17.5 14.2 9.4 59 4.3 NE 17 20 9 11 1026.0 1024.8 0.0
21/05:30am 17.5 13.2 9.4 59 4.3 NE 22 33 12 18 1025.7 1024.5 0.0
21/05:00am 17.9 13.5 9.0 56 4.7 ENE 22 30 12 16 1025.3 1024.1 0.0
21/04:30am 18.6 13.4 8.8 53 5.2 NE 26 37 14 20 1024.7 1023.5 0.0
21/04:00am 19.0 14.9 8.6 51 5.5 NE 20 26 11 14 1024.2 1023.0 0.0
21/03:30am 19.5 15.0 8.5 49 5.8 NE 22 30 12 16 1024.0 1022.8 0.0
21/03:00am 20.2 14.8 8.2 46 6.3 NE 26 35 14 19 1023.6 1022.4 0.0
21/02:30am 20.7 15.7 8.0 44 6.7 NE 24 39 13 21 1023.3 1022.1 0.0
21/02:00am 21.6 14.9 7.4 40 7.4 NE 32 46 17 25 1023.1 1021.9 0.0
21/01:30am 22.1 15.6 6.7 37 8.0 NNE 30 46 16 25 1022.9 1021.7 0.0
21/01:23am 22.3 16.3 6.9 37 8.0 NNE 28 46 15 25 1022.9 1021.7 0.0
21/01:00am 23.0 16.8 6.3 34 8.6 NE 28 43 15 23 1022.9 1021.7 0.0
21/12:30am 23.4 18.6 4.9 30 9.4 NE 19 32 10 17 1022.7 1021.5 0.0
21/12:00am 24.1 17.8 5.5 30 9.5 ENE 28 43 15 23 1022.9 1021.7 0.0
 
Date/Time
EST
Temp
°C
App
Temp
°C
Dew
Point
Rel
Hum
%
Delta-T
°C
Wind Press
QNH
hPa
Press
MSL
hPa
Rain
since 9 am
mm
Dir
 
Spd
km/h
Gust
km/h
Spd
kts
Gust
kts
20/11:52pm 24.1 18.2 7.3 34 8.9 NE 28 43 15 23 1022.9 1021.7 0.0
20/11:30pm 20.6 18.4 5.4 37 7.6 N 6 7 3 4 1022.4 1021.2 0.0
20/11:00pm 19.5 17.2 4.8 38 7.2 NNE 6 7 3 4 1022.4 1021.2 0.0
20/10:30pm 21.1 18.7 5.1 35 8.0 NNE 7 7 4 4 1022.4 1021.2 0.0
20/10:00pm 21.9 20.8 4.9 33 8.5 CALM 0 0 0 0 1022.5 1021.3 0.0
20/09:30pm 22.1 19.6 4.6 32 8.7 NNE 7 9 4 5 1022.3 1021.1 0.0
20/09:00pm 22.4 20.5 4.9 32 8.8 NNE 4 7 2 4 1022.2 1021.0 0.0
20/08:30pm 22.3 19.6 3.9 30 9.1 E 7 9 4 5 1022.0 1020.8 0.0
20/08:00pm 23.1 20.6 4.6 30 9.3 ESE 7 11 4 6 1021.8 1020.6 0.0
20/07:30pm 24.3 20.9 4.1 27 10.1 ESE 11 13 6 7 1021.5 1020.3 0.0
20/07:00pm 25.2 21.8 3.8 25 10.7 ESE 11 13 6 7 1021.2 1020.0 0.0
20/06:30pm 26.9 23.1 4.0 23 11.7 SE 13 15 7 8 1020.9 1019.7 0.0
20/06:00pm 28.8 25.1 4.3 21 12.6 SE 13 17 7 9 1020.6 1019.3 0.0
20/05:30pm 30.3 26.2 4.1 19 13.6 ESE 15 22 8 12 1020.2 1019.0 0.0
20/05:00pm 31.0 25.9 3.9 18 14.1 ESE 20 26 11 14 1019.9 1018.7 0.0
20/04:30pm 31.2 26.1 4.1 18 14.2 SSE 20 30 11 16 1019.7 1018.5 0.0
20/04:00pm 31.1 27.8 4.8 19 13.9 ENE 11 19 6 10 1019.7 1018.5 0.0
20/03:30pm 31.2 26.4 4.9 19 13.9 SSE 19 30 10 16 1019.8 1018.6 0.0
20/03:00pm 31.1 28.0 5.5 20 13.7 E 11 19 6 10 1020.0 1018.8 0.0
20/02:30pm 31.8 27.1 5.3 19 14.2 E 19 24 10 13 1020.3 1019.1 0.0
20/02:00pm 31.7 27.6 6.0 20 13.9 S 17 26 9 14 1020.8 1019.5 0.0
20/01:30pm 30.8 26.7 6.0 21 13.4 E 17 26 9 14 1021.4 1020.2 0.0
20/01:00pm 30.8 26.1 6.0 21 13.3 SE 20 30 11 16 1021.8 1020.6 0.0
20/12:30pm 29.9 25.7 5.9 22 12.8 SSE 17 26 9 14 1022.5 1021.3 0.0
20/12:00pm 29.3 25.9 6.0 23 12.4 SSE 13 24 7 13 1023.0 1021.8 0.0
20/11:30am 29.5 27.2 7.4 25 12.1 E 9 24 5 13 1023.4 1022.2 0.0
20/11:00am 27.5 24.7 8.4 30 10.5 E 13 20 7 11 1024.1 1022.9 0.0
20/10:30am 27.7 25.9 9.5 32 10.2 NNW 9 15 5 8 1024.6 1023.4 0.0
20/10:07am 25.7 23.8 9.1 35 9.2 N 9 19 5 10 1024.9 1023.7 0.0
20/10:00am 25.6 23.9 9.8 37 8.8 N 9 17 5 9 1024.9 1023.7 0.0
20/09:37am 24.7 22.9 9.4 38 8.5 N 9 13 5 7 1025.1 1023.9 0.0
20/09:30am 25.4 23.2 10.8 40 8.3 N 13 20 7 11 1025.1 1023.9 0.0
20/09:00am 23.7 20.1 10.0 42 7.6 N 19 24 10 13 1025.4 1024.2 0.0
20/08:30am 23.2 19.7 10.9 46 6.9 NNE 20 30 11 16 1025.4 1024.2 0.0
20/08:00am 22.3 18.6 11.4 50 6.1 NNE 22 28 12 15 1025.3 1024.1 0.0
20/07:30am 21.0 17.2 11.3 54 5.4 N 22 30 12 16 1025.3 1024.1 0.0
20/07:00am 19.8 15.6 11.0 57 4.9 N 24 30 13 16 1025.0 1023.8 0.0
20/06:30am 18.7 15.2 11.0 61 4.2 NNE 20 28 11 15 1024.5 1023.3 0.0
20/06:00am 17.5 14.5 10.6 64 3.7 NNE 17 22 9 12 1024.1 1022.9 0.0
20/05:30am 17.1 14.1 10.7 66 3.5 NNE 17 22 9 12 1024.0 1022.8 0.0
20/05:00am 17.1 13.7 10.5 65 3.6 N 19 24 10 13 1023.4 1022.2 0.0
20/04:30am 17.0 14.2 10.1 64 3.7 NNE 15 22 8 12 1023.3 1022.1 0.0
20/04:00am 17.4 14.2 10.1 62 3.9 N 17 20 9 11 1023.4 1022.2 0.0
20/03:30am 17.7 14.5 9.8 60 4.2 N 17 22 9 12 1023.5 1022.3 0.0
20/03:00am 18.3 14.4 9.6 57 4.6 NNE 20 28 11 15 1023.3 1022.1 0.0
20/02:30am 18.9 14.3 9.7 55 5.0 NNE 24 30 13 16 1023.1 1021.9 0.0
20/02:00am 19.3 14.6 9.2 52 5.4 NNE 24 37 13 20 1023.2 1022.0 0.0
20/01:30am 18.0 14.9 5.6 44 6.1 N 11 13 6 7 1023.4 1022.2 0.0
20/01:00am 19.6 16.3 6.3 42 6.7 NNE 13 19 7 10 1023.4 1022.2 0.0
20/12:43am 18.9 14.9 6.7 45 6.2 NNE 17 20 9 11 1023.6 1022.4 0.0
20/12:30am 13.9 12.2 3.9 51 4.6 ENE 2 9 1 5 1023.6 1022.4 0.0
20/12:00am 14.8 12.8 4.5 50 4.8 N 4 11 2 6 1023.7 1022.6 0.0
 
Date/Time
EST
Temp
°C
App
Temp
°C
Dew
Point
Rel
Hum
%
Delta-T
°C
Wind Press
QNH
hPa
Press
MSL
hPa
Rain
since 9 am
mm
Dir
 
Spd
km/h
Gust
km/h
Spd
kts
Gust
kts
19/11:30pm 17.2 15.1 3.8 41 6.4 NNE 4 6 2 3 1023.6 1022.4 0.0
19/11:00pm 18.3 16.0 4.8 41 6.6 NNE 6 7 3 4 1023.7 1022.6 0.0
19/10:30pm 18.4 17.3 4.9 41 6.6 CALM 0 0 0 0 1023.8 1022.7 0.0
19/10:00pm 19.8 18.7 5.1 38 7.3 CALM 0 0 0 0 1023.7 1022.6 0.0
19/09:30pm 19.1 16.9 5.2 40 6.9 NE 6 7 3 4 1023.6 1022.4 0.0
19/09:00pm 19.6 16.8 5.3 39 7.1 ENE 9 11 5 6 1023.6 1022.4 0.0
19/08:30pm 18.8 16.2 3.4 36 7.3 NNE 6 7 3 4 1023.2 1022.0 0.0
19/08:00pm 21.5 19.2 4.6 33 8.4 NNE 6 6 3 3 1023.1 1021.9 0.0
19/07:30pm 21.6 19.0 4.2 32 8.6 NE 7 9 4 5 1022.9 1021.7 0.0
19/07:00pm 22.8 19.8 3.9 29 9.3 NE 9 9 5 5 1022.6 1021.4 0.0
19/06:30pm 24.3 20.9 4.1 27 10.1 ENE 11 15 6 8 1022.1 1020.9 0.0
19/06:00pm 26.6 22.4 3.8 23 11.5 ENE 15 19 8 10 1021.8 1020.6 0.0
19/05:30pm 28.1 25.3 5.0 23 12.1 ENE 9 13 5 7 1021.6 1020.4 0.0
19/05:00pm 28.8 25.3 5.6 23 12.2 NE 13 20 7 11 1021.4 1020.2 0.0
19/04:30pm 28.8 25.7 5.6 23 12.3 ENE 11 20 6 11 1021.2 1020.0 0.0
19/04:00pm 28.9 25.5 5.7 23 12.3 SSE 13 22 7 12 1021.4 1020.2 0.0
19/03:30pm 28.9 24.6 5.1 22 12.5 SE 17 32 9 17 1021.4 1020.2 0.0
19/03:00pm 29.0 24.7 5.1 22 12.5 SE 17 26 9 14 1021.5 1020.3 0.0
19/02:30pm 29.3 26.7 6.0 23 12.5 SSE 9 24 5 13 1022.0 1020.8 0.0
19/02:00pm 29.5 23.6 5.6 22 12.7 E 26 32 14 17 1022.4 1021.2 0.0
19/01:30pm 28.9 26.3 6.3 24 12.1 ENE 9 15 5 8 1023.0 1021.8 0.0
19/01:00pm 28.6 23.3 4.8 22 12.4 SE 22 32 12 17 1023.6 1022.4 0.0
19/12:30pm 28.1 23.0 6.2 25 11.7 E 22 35 12 19 1024.2 1023.0 0.0
19/12:00pm 26.9 24.5 6.9 28 10.7 SSW 9 13 5 7 1024.7 1023.5 0.0
19/11:30am 26.1 23.1 7.7 31 9.9 ESE 13 20 7 11 1025.2 1024.0 0.0
19/11:00am 25.8 22.1 9.6 36 9.0 NE 19 28 10 15 1025.9 1024.7 0.0
19/10:30am 25.5 22.2 9.7 37 8.8 NNE 17 28 9 15 1026.3 1025.1 0.0
19/10:00am 24.1 20.5 10.4 42 7.6 NNE 20 33 11 18 1026.6 1025.5 0.0
19/09:30am 23.4 19.4 10.5 44 7.2 NE 22 32 12 17 1026.8 1025.7 0.0
19/09:00am 22.2 17.3 10.0 46 6.7 NE 26 37 14 20 1027.1 1026.0 0.0
19/08:30am 21.5 16.7 10.3 49 6.2 NE 26 35 14 19 1027.2 1026.1 0.0
19/08:00am 21.5 16.3 10.3 49 6.1 NE 28 35 15 19 1027.0 1025.9 0.0
19/07:30am 20.2 16.1 10.0 52 5.6 NNE 22 32 12 17 1026.9 1025.8 0.0
19/07:00am 19.0 14.9 10.0 56 4.8 NNE 22 32 12 17 1026.5 1025.3 0.0
19/06:30am 17.7 14.5 9.8 60 4.2 NE 17 22 9 12 1026.1 1024.9 0.0
19/06:00am 16.3 13.8 9.7 65 3.5 NE 13 17 7 9 1025.6 1024.4 0.0
19/05:30am 15.2 13.2 10.0 71 2.8 NE 11 15 6 8 1025.3 1024.1 0.0
19/05:00am 15.0 13.1 9.1 68 3.1 NNE 9 11 5 6 1024.9 1023.7 0.0
19/04:30am 16.0 13.4 9.4 65 3.5 NNE 13 17 7 9 1024.6 1023.4 0.0
19/04:00am 16.9 14.4 9.6 62 3.9 NE 13 17 7 9 1024.2 1023.0 0.0
19/03:30am 17.3 15.2 9.7 61 4.1 NE 11 15 6 8 1023.8 1022.7 0.0
19/03:00am 18.3 14.1 9.9 58 4.5 NE 22 30 12 16 1023.5 1022.3 0.0
19/02:30am 18.7 14.1 9.8 56 4.8 NE 24 32 13 17 1023.6 1022.4 0.0
19/02:00am 19.5 13.8 9.7 53 5.3 NE 30 43 16 23 1023.5 1022.3 0.0
19/01:30am 19.8 15.2 9.7 52 5.5 NE 24 35 13 19 1023.3 1022.1 0.0
19/01:00am 19.9 14.3 8.9 49 5.8 NE 28 41 15 22 1023.5 1022.3 0.0
19/12:30am 20.0 15.8 8.4 47 6.1 NE 20 28 11 15 1023.6 1022.4 0.0
19/12:00am 19.7 14.8 5.0 38 7.2 NE 20 28 11 15 1024.0 1022.8 0.0
 
Date/Time
EST
Temp
°C
App
Temp
°C
Dew
Point
Rel
Hum
%
Delta-T
°C
Wind Press
QNH
hPa
Press
MSL
hPa
Rain
since 9 am
mm
Dir
 
Spd
km/h
Gust
km/h
Spd
kts
Gust
kts
18/11:30pm 17.1 13.3 1.5 35 7.0 SE 11 15 6 8 1023.6 1022.4 0.0
18/11:00pm 16.9 13.8 1.4 35 6.9 S 7 9 4 5 1023.6 1022.4 0.0
18/10:30pm 18.7 16.2 1.7 32 7.8 NNE 4 6 2 3 1023.6 1022.4 0.0
18/10:00pm 19.1 15.7 2.0 32 7.9 NE 9 9 5 5 1023.5 1022.3 0.0
18/09:30pm 19.8 16.0 1.7 30 8.4 NNE 11 11 6 6 1023.6 1022.4 0.0
18/09:00pm 19.6 16.2 1.6 30 8.3 ENE 9 11 5 6 1023.6 1022.4 0.0
18/08:30pm 20.4 17.6 2.3 30 8.5 ENE 6 9 3 5 1023.3 1022.1 0.0
18/08:00pm 18.8 15.7 0.4 29 8.2 ESE 6 9 3 5 1022.9 1021.7 0.0
18/07:30pm 21.8 19.0 2.0 27 9.4 ENE 6 7 3 4 1022.4 1021.2 0.0
18/07:00pm 22.3 18.9 1.9 26 9.6 E 9 11 5 6 1022.0 1020.8 0.0
18/06:30pm 23.9 20.1 1.5 23 10.7 E 11 15 6 8 1021.6 1020.4 0.0
18/06:00pm 26.4 22.2 1.7 20 12.0 ESE 13 17 7 9 1021.3 1020.1 0.0
18/05:30pm 27.7 23.9 2.0 19 12.7 E 11 19 6 10 1020.9 1019.7 0.0

Other Formats:

Comma delimited format used in spreadsheet applications
http://www.bom.gov.au/fwo/IDQ60801/IDQ60801.94515.axf

JavaScript Object Notation format (JSON) in row-major order
http://www.bom.gov.au/fwo/IDQ60801/IDQ60801.94515.json